»·PEaware :: GTH100 KONT-KVGT

GTH100 :: KONT-KVGT

FLIGHT INFORMATION

Flight Status: Arrived
Operator: Unknown
More flights by this operator :: More flights under this callsign
Pilot: Peter M. (9586)
Aircraft: FAIRCHILD F-27 FH-227
(F27)
More flights by this aircraft type
Origin: KONT Ontario Intl
United States
Destination: KVGT North Las Vegas
United States
More flights between these airports :: More routes between these airports
Route: +PDZ V442 APLES V394 DAG V587 BLD
File this flight plan on PilotEdge
Remarks:
Altitude:
(Current/Filed)
290ft
Speed:
(Current/Filed)
220kts
Departed: 12-Jan-18 10:10 PM
Arrived: 12-Jan-18 11:02 PM
Distance/Time
Traveled:
175nm/0:51
Distance/Time
To Go:
Arrived

Flight Plot

Page will automatically refresh every two minutes.


Map Options




Map Legend


Flown Route
Filed Route
Departure Airport
Arrival Airport
Navaid (VOR, NDB)
Fix

Horizontal Profiles

Position Reports

Time Latitude Longitude Heading Altitude Ground
Speed
12-Jan-18 21:46 34.059501 -117.591694 349 950ft 0kts
12-Jan-18 21:47 34.059504 -117.591694 349 950ft 0kts
12-Jan-18 21:48 34.059506 -117.591695 349 950ft 0kts
12-Jan-18 21:49 34.059509 -117.591695 349 950ft 0kts
12-Jan-18 21:50 34.059511 -117.591696 349 950ft 0kts
12-Jan-18 21:51 34.059514 -117.591697 349 950ft 0kts
12-Jan-18 21:52 34.059516 -117.591697 349 950ft 0kts
12-Jan-18 21:53 34.059519 -117.591698 349 950ft 0kts
12-Jan-18 21:54 34.059521 -117.591698 349 950ft 0kts
12-Jan-18 21:55 34.059524 -117.591699 349 950ft 0kts
12-Jan-18 21:56 34.059526 -117.591699 349 950ft 0kts
12-Jan-18 21:57 34.059528 -117.591700 349 950ft 0kts
12-Jan-18 21:58 34.059531 -117.591701 349 950ft 0kts
12-Jan-18 21:59 34.059533 -117.591701 349 950ft 0kts
12-Jan-18 22:00 34.059536 -117.591702 349 950ft 0kts
12-Jan-18 22:01 34.059538 -117.591702 349 950ft 0kts
12-Jan-18 22:02 34.059541 -117.591703 349 950ft 0kts
12-Jan-18 22:03 34.059543 -117.591703 349 950ft 0kts
12-Jan-18 22:04 34.059546 -117.591704 349 950ft 0kts
12-Jan-18 22:05 34.059548 -117.591705 349 950ft 0kts
12-Jan-18 22:06 34.059551 -117.591705 349 950ft 0kts
12-Jan-18 22:07 34.059554 -117.591706 349 950ft 0kts
12-Jan-18 22:08 34.059556 -117.591706 349 950ft 0kts
12-Jan-18 22:09 34.059559 -117.591707 349 950ft 0kts
12-Jan-18 22:10 34.059561 -117.591708 349 950ft 0kts
12-Jan-18 22:11 34.059564 -117.591708 349 950ft 0kts
12-Jan-18 22:12 34.059428 -117.591677 349 950ft 2kts
12-Jan-18 22:13 34.059056 -117.589191 89 950ft 29kts
12-Jan-18 22:14 34.058361 -117.582651 185 950ft 8kts
12-Jan-18 22:15 34.057930 -117.582668 178 950ft 0kts
12-Jan-18 22:16 34.056831 -117.584653 272 950ft 60kts
12-Jan-18 22:17 34.057412 -117.636191 271 2125ft 198kts
12-Jan-18 22:18 34.057538 -117.704055 269 4033ft 204kts
12-Jan-18 22:19 34.043127 -117.764468 211 5919ft 213kts
12-Jan-18 22:20 33.989771 -117.736878 145 7605ft 235kts
12-Jan-18 22:21 33.943568 -117.682235 131 9382ft 234kts
12-Jan-18 22:22 33.904696 -117.617639 120 10943ft 244kts
12-Jan-18 22:23 33.886751 -117.537541 101 12459ft 250kts
12-Jan-18 22:24 33.918129 -117.466436 35 13135ft 263kts
12-Jan-18 22:25 33.986757 -117.451698 351 13546ft 240kts
12-Jan-18 22:26 34.087604 -117.428213 21 15940ft 244kts
12-Jan-18 22:27 34.210516 -117.354300 21 18953ft 250kts
12-Jan-18 22:28 34.282895 -117.310596 21 20607ft 254kts
12-Jan-18 22:29 34.408283 -117.234635 21 23376ft 255kts
12-Jan-18 22:30 34.536720 -117.156563 21 26019ft 260kts
12-Jan-18 22:31 34.639435 -117.024750 44 28477ft 273kts
12-Jan-18 22:32 34.746468 -116.877336 45 29141ft 309kts
12-Jan-18 22:33 34.861172 -116.718689 45 28930ft 312kts
12-Jan-18 22:34 34.950545 -116.594602 45 29073ft 311kts
12-Jan-18 22:35 34.995524 -116.503614 58 28922ft 318kts
12-Jan-18 22:36 35.037417 -116.409934 59 28747ft 305kts
12-Jan-18 22:37 35.077117 -116.319715 59 28631ft 301kts
12-Jan-18 22:38 35.116846 -116.229817 60 28474ft 301kts
12-Jan-18 22:39 35.156101 -116.140649 59 28721ft 287kts
12-Jan-18 22:40 35.193722 -116.055171 59 29033ft 289kts
12-Jan-18 22:41 35.231693 -115.968317 59 28463ft 286kts
12-Jan-18 22:42 35.269172 -115.882616 59 27825ft 284kts
12-Jan-18 22:43 35.305776 -115.798482 59 26954ft 281kts
12-Jan-18 22:44 35.357497 -115.724495 43 26437ft 292kts
12-Jan-18 22:45 35.414116 -115.649555 44 25419ft 309kts
12-Jan-18 22:46 35.473528 -115.569679 44 23489ft 317kts
12-Jan-18 22:47 35.532527 -115.490515 44 21616ft 312kts
12-Jan-18 22:48 35.590608 -115.412495 43 19445ft 300kts
12-Jan-18 22:49 35.643978 -115.340649 43 16051ft 272kts
12-Jan-18 22:50 35.693739 -115.273634 43 12855ft 259kts
12-Jan-18 22:51 35.738423 -115.213266 43 12786ft 226kts
12-Jan-18 22:52 35.780446 -115.156471 43 13103ft 238kts
12-Jan-18 22:53 35.828024 -115.091735 45 13058ft 263kts
12-Jan-18 22:54 35.885316 -115.087100 310 12948ft 228kts
12-Jan-18 22:55 35.921698 -115.147529 302 13156ft 218kts
12-Jan-18 22:56 35.958404 -115.210918 302 13074ft 236kts
12-Jan-18 22:57 35.990444 -115.266613 302 12990ft 239kts
12-Jan-18 22:58 36.034906 -115.343755 302 13675ft 226kts
12-Jan-18 22:59 36.066240 -115.398891 298 13455ft 231kts
12-Jan-18 23:00 36.094500 -115.472075 292 12613ft 243kts
12-Jan-18 23:01 36.133571 -115.539481 323 12210ft 245kts
12-Jan-18 23:02 36.201587 -115.531936 32 11560ft 278kts
12-Jan-18 23:03 36.237685 -115.448701 67 11015ft 258kts
12-Jan-18 23:04 36.265949 -115.372160 60 11002ft 239kts
12-Jan-18 23:05 36.289204 -115.291288 86 8417ft 267kts
12-Jan-18 23:06 36.251089 -115.235659 166 4838ft 169kts
12-Jan-18 23:07 36.219573 -115.208813 134 2364ft 117kts
12-Jan-18 23:08 36.205849 -115.191411 134 2211ft 20kts
12-Jan-18 23:09 36.205362 -115.192081 317 2211ft 0kts

Navigation Log

Ident Type
1. KONT Airport
2. PDZ Navaid
3. APLES Fix
4. BASAL Fix
5. DAG Navaid
6. TEELE Fix
7. DANBY Fix
8. WHIGG Fix
9. BOACH Fix
10. CRESO Fix
11. DICSA Fix
12. BLD Navaid
13. KVGT Airport